Time;durP1;ratioP1;P1;durP2;ratioP2;P2;SDS_P1;SDS_P2;PMS_P1;PMS_P2;Temp;Humidity;BMP_temperature;BMP_pressure;BME280_temperature;BME280_humidity;BME280_pressure;Samples;Min_cycle;Max_cycle;Signal;HPM_P1;HPM_P2
2023/12/02 00:01:24;;;;;;;;;;;-0.30;99.90;;;;;;5033024;28;19941;-68
2023/12/02 00:03:51;;;;;;;;;;;-0.30;99.90;;;;;;5033034;28;19935;-68
2023/12/02 00:06:20;;;;;;;;;;;-0.30;99.90;;;;;;5033358;28;20396;-68
2023/12/02 00:08:47;;;;;;;;;;;-0.20;99.90;;;;;;5033345;28;19920;-67
2023/12/02 00:11:15;;;;;;;;;;;-0.20;99.90;;;;;;5040132;28;20335;-67
2023/12/02 00:13:43;;;;;;;;;;;-0.20;99.90;;;;;;5032710;28;19979;-68
2023/12/02 00:16:11;;;;;;;;;;;-0.20;99.90;;;;;;5033090;28;20010;-68
2023/12/02 00:18:40;;;;;;;;;;;-0.30;99.90;;;;;;5033309;28;19920;-68
2023/12/02 00:21:08;;;;;;;;;;;-0.20;99.90;;;;;;5024830;28;19921;-67
2023/12/02 00:23:36;;;;;;;;;;;0.00;99.90;;;;;;5033295;28;20355;-67
2023/12/02 00:26:04;;;;;;;;;;;-0.10;99.90;;;;;;5014688;28;19928;-67
2023/12/02 00:28:32;;;;;;;;;;;-0.20;99.90;;;;;;5032407;28;19921;-67
2023/12/02 00:31:00;;;;;;;;;;;-0.30;99.90;;;;;;5032648;28;19925;-67
2023/12/02 00:33:27;;;;;;;;;;;-0.30;99.90;;;;;;5032902;28;20349;-67
2023/12/02 00:35:57;;;;;;;;;;;-0.30;99.90;;;;;;5032577;28;20312;-67
2023/12/02 00:38:24;;;;;;;;;;;-0.30;99.90;;;;;;5032957;28;20035;-67
2023/12/02 00:40:52;;;;;;;;;;;-0.30;99.90;;;;;;5032253;28;19925;-68
2023/12/02 00:43:20;;;;;;;;;;;-0.40;99.90;;;;;;5026493;28;19929;-67
2023/12/02 00:45:48;;;;;;;;;;;-0.40;99.90;;;;;;5032484;28;20555;-67
2023/12/02 00:48:15;;;;;;;;;;;-0.20;99.90;;;;;;5032684;28;19921;-67
2023/12/02 00:50:43;;;;;;;;;;;-0.10;99.90;;;;;;5031436;28;19920;-67
2023/12/02 00:53:12;;;;;;;;;;;-0.10;99.90;;;;;;5032612;28;20395;-67
2023/12/02 00:55:40;;;;;;;;;;;-0.20;99.90;;;;;;5032232;28;20551;-66
2023/12/02 00:58:08;;;;;;;;;;;-0.30;99.90;;;;;;5024461;28;19924;-67
2023/12/02 01:00:36;;;;;;;;;;;-0.30;99.90;;;;;;5031783;28;20268;-68
2023/12/02 01:03:04;;;;;;;;;;;-0.40;99.90;;;;;;5032146;28;19921;-68
2023/12/02 01:05:31;;;;;;;;;;;-0.50;99.90;;;;;;5032245;28;19925;-67
2023/12/02 01:07:59;;;;;;;;;;;-0.60;99.90;;;;;;5032049;28;19930;-68
2023/12/02 01:10:28;;;;;;;;;;;-0.70;99.90;;;;;;5037408;28;19975;-67
2023/12/02 01:12:56;;;;;;;;;;;-0.70;99.90;;;;;;5033675;28;19983;-67
2023/12/02 01:15:24;;;;;;;;;;;-0.80;99.90;;;;;;5031200;28;20426;-67
2023/12/02 01:17:52;;;;;;;;;;;-0.70;99.90;;;;;;5031913;28;19931;-68
2023/12/02 01:20:20;;;;;;;;;;;-0.40;99.90;;;;;;5031609;28;19928;-67
2023/12/02 01:22:48;;;;;;;;;;;-0.20;99.90;;;;;;5031672;28;19928;-67
2023/12/02 01:25:15;;;;;;;;;;;-0.20;99.90;;;;;;5031949;28;19924;-67
2023/12/02 01:27:44;;;;;;;;;;;-0.20;99.90;;;;;;5031961;28;20372;-69
2023/12/02 01:30:11;;;;;;;;;;;-0.30;99.90;;;;;;5024210;28;19921;-67
2023/12/02 01:32:39;;;;;;;;;;;-0.30;99.90;;;;;;5031811;28;19921;-66
2023/12/02 01:35:07;;;;;;;;;;;-0.40;99.90;;;;;;5030886;28;19951;-66
2023/12/02 01:37:35;;;;;;;;;;;-0.30;99.90;;;;;;5031622;28;20402;-66
2023/12/02 01:40:03;;;;;;;;;;;-0.10;99.90;;;;;;5030550;28;19921;-66
2023/12/02 01:42:32;;;;;;;;;;;0.00;99.90;;;;;;5031721;28;19927;-65
2023/12/02 01:45:01;;;;;;;;;;;0.10;99.90;;;;;;5031305;28;20023;-66
2023/12/02 01:47:29;;;;;;;;;;;0.20;99.90;;;;;;5031616;28;19921;-66
2023/12/02 01:49:58;;;;;;;;;;;0.00;99.90;;;;;;5031301;28;20376;-65
2023/12/02 01:52:26;;;;;;;;;;;-0.10;99.90;;;;;;5031495;28;20384;-66
2023/12/02 01:54:54;;;;;;;;;;;-0.20;99.90;;;;;;5030754;28;19948;-67
2023/12/02 01:57:21;;;;;;;;;;;-0.20;99.90;;;;;;5029644;28;19925;-66
2023/12/02 01:59:53;;;;;;;;;;;0.10;99.90;;;;;;5031214;28;19925;-66
2023/12/02 02:02:23;;;;;;;;;;;0.10;99.90;;;;;;5031246;28;20291;-66
2023/12/02 02:04:51;;;;;;;;;;;0.30;99.90;;;;;;5031025;28;19921;-66
2023/12/02 02:07:19;;;;;;;;;;;0.80;99.90;;;;;;5031427;28;20351;-66
2023/12/02 02:09:47;;;;;;;;;;;1.00;99.90;;;;;;5031109;28;19972;-67
2023/12/02 02:12:15;;;;;;;;;;;0.90;99.90;;;;;;5030766;28;19924;-66
2023/12/02 02:14:43;;;;;;;;;;;1.00;99.90;;;;;;5030960;28;19931;-66
2023/12/02 02:17:11;;;;;;;;;;;1.20;99.90;;;;;;5023022;28;19932;-66
2023/12/02 02:19:40;;;;;;;;;;;1.40;99.90;;;;;;5031229;28;20007;-66
2023/12/02 02:22:09;;;;;;;;;;;1.40;99.90;;;;;;5030368;28;20007;-66
2023/12/02 02:24:37;;;;;;;;;;;1.30;99.90;;;;;;5030982;28;19925;-65
2023/12/02 02:27:05;;;;;;;;;;;1.20;99.90;;;;;;5030770;28;19936;-66
2023/12/02 02:29:33;;;;;;;;;;;1.10;99.90;;;;;;5031080;28;19921;-66
2023/12/02 02:32:00;;;;;;;;;;;0.90;99.90;;;;;;5030170;28;19928;-65
2023/12/02 02:34:28;;;;;;;;;;;1.20;99.90;;;;;;5030915;28;19925;-65
2023/12/02 02:36:56;;;;;;;;;;;1.10;99.90;;;;;;5030810;28;20035;-66
2023/12/02 02:39:25;;;;;;;;;;;1.10;99.90;;;;;;5031018;28;19924;-65
2023/12/02 02:41:54;;;;;;;;;;;0.90;99.90;;;;;;5030496;28;19964;-66
2023/12/02 02:44:22;;;;;;;;;;;1.00;99.90;;;;;;5030608;28;20380;-67
2023/12/02 02:46:50;;;;;;;;;;;0.90;99.90;;;;;;5030494;28;19921;-66
2023/12/02 02:49:17;;;;;;;;;;;0.80;99.90;;;;;;5030941;28;19975;-65
2023/12/02 02:51:45;;;;;;;;;;;0.40;99.90;;;;;;5028965;28;19967;-71
2023/12/02 02:54:13;;;;;;;;;;;0.70;99.90;;;;;;5033809;28;19925;-68
2023/12/02 02:56:44;;;;;;;;;;;0.80;99.90;;;;;;5025869;28;20383;-68
2023/12/02 02:59:12;;;;;;;;;;;0.80;99.90;;;;;;5019461;28;19976;-67
2023/12/02 03:01:40;;;;;;;;;;;0.70;99.90;;;;;;5029401;28;19928;-68
2023/12/02 03:04:08;;;;;;;;;;;0.40;99.90;;;;;;5031341;28;19922;-68
2023/12/02 03:06:36;;;;;;;;;;;0.40;99.90;;;;;;5029559;28;19927;-68
2023/12/02 03:09:05;;;;;;;;;;;0.30;99.90;;;;;;5034310;28;19963;-68
2023/12/02 03:11:33;;;;;;;;;;;0.20;99.90;;;;;;5034388;28;19924;-67
2023/12/02 03:14:02;;;;;;;;;;;-0.10;99.90;;;;;;5034224;28;19975;-66
2023/12/02 03:16:29;;;;;;;;;;;-0.10;99.90;;;;;;5034217;28;19921;-66
2023/12/02 03:18:57;;;;;;;;;;;-0.30;99.90;;;;;;5034191;28;19925;-66
2023/12/02 03:21:25;;;;;;;;;;;-0.50;99.90;;;;;;5033765;28;19956;-66
2023/12/02 03:23:53;;;;;;;;;;;-0.60;99.90;;;;;;5034104;28;20292;-66
2023/12/02 03:26:20;;;;;;;;;;;-0.60;99.90;;;;;;5033298;28;20023;-66
2023/12/02 03:28:48;;;;;;;;;;;-0.30;99.90;;;;;;5033988;28;19929;-65
2023/12/02 03:31:17;;;;;;;;;;;-0.20;99.90;;;;;;5033843;28;20019;-65
2023/12/02 03:33:45;;;;;;;;;;;-0.30;99.90;;;;;;5033931;28;20495;-66
2023/12/02 03:36:13;;;;;;;;;;;-0.20;99.90;;;;;;5025883;28;20411;-66
2023/12/02 03:38:41;;;;;;;;;;;-0.20;99.90;;;;;;5034029;28;19928;-67
2023/12/02 03:41:09;;;;;;;;;;;-0.40;99.90;;;;;;5032878;28;19928;-66
2023/12/02 03:43:37;;;;;;;;;;;-0.40;99.90;;;;;;5030243;28;19925;-67
2023/12/02 03:46:26;;;;;;;;;;;-0.50;99.90;;;;;;5027204;28;19931;-67
2023/12/02 03:48:54;;;;;;;;;;;-0.50;99.90;;;;;;5033641;28;19940;-67
2023/12/02 03:51:22;;;;;;;;;;;-0.80;99.90;;;;;;5033414;28;19921;-67
2023/12/02 03:53:50;;;;;;;;;;;-0.80;99.90;;;;;;5033627;28;19921;-66
2023/12/02 03:56:18;;;;;;;;;;;-0.60;99.90;;;;;;5033428;28;20307;-68
2023/12/02 03:58:46;;;;;;;;;;;-0.70;99.90;;;;;;5033485;28;19928;-67
2023/12/02 04:01:15;;;;;;;;;;;-0.50;99.90;;;;;;5024624;28;19925;-67
2023/12/02 04:03:44;;;;;;;;;;;-0.70;99.90;;;;;;5032481;28;19928;-66
2023/12/02 04:06:13;;;;;;;;;;;-0.60;99.90;;;;;;5024975;28;19928;-67
2023/12/02 04:08:42;;;;;;;;;;;-0.60;99.90;;;;;;5033331;28;19921;-67
2023/12/02 04:11:10;;;;;;;;;;;-0.70;99.90;;;;;;5041199;28;20407;-67
2023/12/02 04:13:37;;;;;;;;;;;-0.60;99.90;;;;;;5033416;28;19946;-67
2023/12/02 04:16:06;;;;;;;;;;;-0.70;99.90;;;;;;5032959;28;19928;-67
2023/12/02 04:18:34;;;;;;;;;;;-0.80;99.90;;;;;;5033315;28;20015;-67
2023/12/02 04:21:05;;;;;;;;;;;-0.80;99.90;;;;;;5032302;28;19975;-67
2023/12/02 04:23:32;;;;;;;;;;;-0.80;99.90;;;;;;5033916;28;20008;-66
2023/12/02 04:26:01;;;;;;;;;;;-0.90;99.90;;;;;;5023993;28;19933;-67
2023/12/02 04:28:29;;;;;;;;;;;-1.00;99.90;;;;;;5024017;28;19921;-66
2023/12/02 04:30:57;;;;;;;;;;;-0.90;99.90;;;;;;5024378;28;19928;-67
2023/12/02 04:33:24;;;;;;;;;;;-1.00;99.90;;;;;;5025734;28;19921;-66
2023/12/02 04:35:52;;;;;;;;;;;-1.10;99.90;;;;;;5026045;28;19928;-67
2023/12/02 04:38:21;;;;;;;;;;;-1.00;99.90;;;;;;5025485;28;19987;-66
2023/12/02 04:40:49;;;;;;;;;;;-0.90;99.90;;;;;;5025492;28;20395;-66
2023/12/02 04:43:17;;;;;;;;;;;-1.00;99.90;;;;;;5024039;28;19925;-66
2023/12/02 04:45:45;;;;;;;;;;;-1.00;99.90;;;;;;5024406;28;19936;-66
2023/12/02 04:48:13;;;;;;;;;;;-1.00;99.90;;;;;;5023221;28;19929;-67
2023/12/02 04:50:40;;;;;;;;;;;-1.00;99.90;;;;;;5022747;28;20016;-68
2023/12/02 04:53:09;;;;;;;;;;;-1.10;99.90;;;;;;5025721;28;19933;-65
2023/12/02 04:55:38;;;;;;;;;;;-1.10;99.90;;;;;;5025073;28;20392;-65
2023/12/02 04:58:05;;;;;;;;;;;-1.10;99.90;;;;;;5027016;28;19928;-66
2023/12/02 05:00:33;;;;;;;;;;;-1.10;99.90;;;;;;5023617;28;19967;-67
2023/12/02 05:03:01;;;;;;;;;;;-1.10;99.90;;;;;;5029137;28;19920;-68
2023/12/02 05:05:29;;;;;;;;;;;-1.10;99.90;;;;;;5025317;28;19928;-65
2023/12/02 05:07:57;;;;;;;;;;;-1.00;99.90;;;;;;5025645;28;19921;-66
2023/12/02 05:10:25;;;;;;;;;;;-0.90;99.90;;;;;;5023395;28;19921;-66
2023/12/02 05:12:55;;;;;;;;;;;-0.90;99.90;;;;;;5022337;28;19929;-66
2023/12/02 05:15:22;;;;;;;;;;;-0.80;99.90;;;;;;5026300;28;19924;-67
2023/12/02 05:17:51;;;;;;;;;;;-0.80;99.90;;;;;;5023924;28;19921;-67
2023/12/02 05:20:19;;;;;;;;;;;-0.80;99.90;;;;;;5021018;28;19921;-66
2023/12/02 05:22:46;;;;;;;;;;;-0.90;99.90;;;;;;4999840;28;19929;-67
2023/12/02 05:25:17;;;;;;;;;;;-0.90;99.90;;;;;;5000252;28;20400;-66
2023/12/02 05:27:45;;;;;;;;;;;-0.90;99.90;;;;;;4999643;28;19926;-66
2023/12/02 05:30:14;;;;;;;;;;;-0.80;99.90;;;;;;5007632;28;19922;-66
2023/12/02 05:32:42;;;;;;;;;;;-0.80;99.90;;;;;;5005048;28;19925;-66
2023/12/02 05:35:11;;;;;;;;;;;-0.80;99.90;;;;;;4999181;28;20031;-67
2023/12/02 05:37:39;;;;;;;;;;;-0.70;99.90;;;;;;5006147;28;20016;-68
2023/12/02 05:40:08;;;;;;;;;;;-0.70;99.90;;;;;;4997932;28;19926;-67
2023/12/02 05:42:36;;;;;;;;;;;-0.70;99.90;;;;;;5001584;28;20305;-67
2023/12/02 05:45:04;;;;;;;;;;;-0.80;99.90;;;;;;5002647;28;19971;-67
2023/12/02 05:47:34;;;;;;;;;;;-0.80;99.90;;;;;;5000128;28;19943;-67
2023/12/02 05:50:02;;;;;;;;;;;-0.80;99.90;;;;;;5000458;28;19930;-68
2023/12/02 05:52:30;;;;;;;;;;;-0.70;99.90;;;;;;5005018;28;20355;-67
2023/12/02 05:54:58;;;;;;;;;;;-0.70;99.90;;;;;;4998275;28;20404;-68
2023/12/02 05:57:26;;;;;;;;;;;-0.50;99.90;;;;;;5001895;28;19929;-67
2023/12/02 05:59:53;;;;;;;;;;;-0.50;99.90;;;;;;5004532;28;19929;-67
2023/12/02 06:02:21;;;;;;;;;;;-0.50;99.90;;;;;;4998863;28;19921;-67
2023/12/02 06:04:51;;;;;;;;;;;-0.50;99.90;;;;;;4998490;28;20308;-67
2023/12/02 06:07:19;;;;;;;;;;;-0.50;99.90;;;;;;5000155;28;19928;-67
2023/12/02 06:09:46;;;;;;;;;;;-0.50;99.90;;;;;;5003625;28;20412;-69
2023/12/02 06:12:14;;;;;;;;;;;-0.50;99.90;;;;;;4998193;28;20354;-67
2023/12/02 06:14:42;;;;;;;;;;;-0.60;99.90;;;;;;5004041;28;19929;-66
2023/12/02 06:17:10;;;;;;;;;;;-0.60;99.90;;;;;;5002467;28;20450;-67
2023/12/02 06:19:37;;;;;;;;;;;-0.70;99.90;;;;;;5011381;28;19925;-68
2023/12/02 06:22:06;;;;;;;;;;;-0.60;99.90;;;;;;5020152;28;20392;-71
2023/12/02 06:24:34;;;;;;;;;;;-0.50;99.90;;;;;;5016282;28;21353;-67
2023/12/02 06:27:02;;;;;;;;;;;-0.40;99.90;;;;;;5024037;28;19928;-68
2023/12/02 06:29:30;;;;;;;;;;;-0.50;99.90;;;;;;5021107;28;19972;-69
2023/12/02 06:31:57;;;;;;;;;;;-0.50;99.90;;;;;;5020316;28;20308;-67
2023/12/02 06:34:25;;;;;;;;;;;-0.50;99.90;;;;;;5021040;28;19921;-68
2023/12/02 06:36:53;;;;;;;;;;;-0.30;99.90;;;;;;5024027;28;19984;-67
2023/12/02 06:39:22;;;;;;;;;;;-0.30;99.90;;;;;;5016871;28;19947;-67
2023/12/02 06:41:50;;;;;;;;;;;-0.40;99.90;;;;;;5016471;28;19928;-66
2023/12/02 06:44:18;;;;;;;;;;;-0.40;99.90;;;;;;5022728;28;19921;-66
2023/12/02 06:46:46;;;;;;;;;;;-0.50;99.90;;;;;;5016921;28;20393;-66
2023/12/02 06:49:13;;;;;;;;;;;-0.40;99.90;;;;;;5018839;28;19920;-67
2023/12/02 06:51:41;;;;;;;;;;;-0.50;99.90;;;;;;5018454;28;20008;-66
2023/12/02 06:54:09;;;;;;;;;;;-0.60;99.90;;;;;;5015756;28;19922;-66
2023/12/02 06:56:38;;;;;;;;;;;-0.70;99.90;;;;;;5020258;28;19922;-67
2023/12/02 06:59:07;;;;;;;;;;;-0.70;99.90;;;;;;5025722;28;19921;-66
2023/12/02 07:01:35;;;;;;;;;;;-0.80;99.90;;;;;;5023461;28;19921;-66
2023/12/02 07:04:03;;;;;;;;;;;-0.80;99.90;;;;;;5023835;28;20328;-66
2023/12/02 07:06:31;;;;;;;;;;;-0.80;99.90;;;;;;5017863;28;20399;-66
2023/12/02 07:08:59;;;;;;;;;;;-0.70;99.90;;;;;;5019970;28;19967;-66
2023/12/02 07:11:27;;;;;;;;;;;-0.80;99.90;;;;;;5020005;28;19921;-66
2023/12/02 07:13:56;;;;;;;;;;;-0.80;99.90;;;;;;5017857;28;19933;-66
2023/12/02 07:16:24;;;;;;;;;;;-0.70;99.90;;;;;;5021836;28;20566;-68
2023/12/02 07:18:52;;;;;;;;;;;-0.70;99.90;;;;;;5021257;28;19921;-66
2023/12/02 07:21:19;;;;;;;;;;;-0.70;99.90;;;;;;5021803;28;19936;-66
2023/12/02 07:23:47;;;;;;;;;;;-0.80;99.90;;;;;;5020915;28;19925;-66
2023/12/02 07:26:15;;;;;;;;;;;-1.00;99.90;;;;;;5020174;28;19924;-66
2023/12/02 07:28:43;;;;;;;;;;;-1.00;99.90;;;;;;5020205;28;20380;-66
2023/12/02 07:31:16;;;;;;;;;;;-0.90;99.90;;;;;;5023492;28;19925;-66
2023/12/02 07:33:44;;;;;;;;;;;-0.90;99.90;;;;;;5025011;28;20413;-66
2023/12/02 07:36:12;;;;;;;;;;;-0.80;99.90;;;;;;5023311;28;19961;-66
2023/12/02 07:38:41;;;;;;;;;;;-0.80;99.90;;;;;;5023868;28;19921;-66
2023/12/02 07:41:09;;;;;;;;;;;-0.80;99.90;;;;;;5021019;28;19921;-66
2023/12/02 07:43:37;;;;;;;;;;;-0.70;99.90;;;;;;5026655;28;19932;-66
2023/12/02 07:46:05;;;;;;;;;;;-0.70;99.90;;;;;;5021347;28;19925;-67
2023/12/02 07:48:34;;;;;;;;;;;-0.60;99.90;;;;;;5027935;28;19921;-65
2023/12/02 07:51:03;;;;;;;;;;;-0.60;99.90;;;;;;5023982;28;20444;-68
2023/12/02 07:53:30;;;;;;;;;;;-0.70;99.90;;;;;;5023096;28;19921;-66
2023/12/02 07:55:58;;;;;;;;;;;-0.60;99.90;;;;;;5023119;28;19936;-66
2023/12/02 07:58:26;;;;;;;;;;;-0.40;99.90;;;;;;5027679;28;19921;-67
2023/12/02 08:00:54;;;;;;;;;;;-0.20;99.90;;;;;;5025674;28;19972;-65
2023/12/02 08:03:22;;;;;;;;;;;0.10;99.90;;;;;;5020923;28;19948;-66
2023/12/02 08:05:53;;;;;;;;;;;0.20;99.90;;;;;;5017436;28;19979;-67
2023/12/02 08:08:21;;;;;;;;;;;0.20;99.90;;;;;;5018870;28;20011;-65
2023/12/02 08:10:49;;;;;;;;;;;0.00;99.90;;;;;;5024726;28;20326;-66
2023/12/02 08:13:16;;;;;;;;;;;0.10;99.90;;;;;;5026298;28;19929;-65
2023/12/02 08:15:44;;;;;;;;;;;-0.10;99.90;;;;;;5027297;28;19928;-65
2023/12/02 08:18:12;;;;;;;;;;;-0.30;99.90;;;;;;5002058;28;19921;-65
2023/12/02 08:20:39;;;;;;;;;;;-0.30;99.90;;;;;;5026724;28;19921;-66
2023/12/02 08:23:09;;;;;;;;;;;0.10;99.90;;;;;;5028218;28;19920;-67
2023/12/02 08:25:36;;;;;;;;;;;-0.30;99.90;;;;;;5031520;28;20346;-65
2023/12/02 08:28:04;;;;;;;;;;;-0.30;99.90;;;;;;5032832;28;19921;-65
2023/12/02 08:30:32;;;;;;;;;;;0.00;99.90;;;;;;5028676;28;19921;-65
2023/12/02 08:33:00;;;;;;;;;;;0.00;99.90;;;;;;5024075;28;20434;-66
2023/12/02 08:35:27;;;;;;;;;;;-0.30;99.90;;;;;;5028420;28;19921;-64
2023/12/02 08:37:55;;;;;;;;;;;-0.30;99.90;;;;;;5025675;28;19979;-66
2023/12/02 08:40:24;;;;;;;;;;;-0.50;99.90;;;;;;5026101;28;19921;-66
2023/12/02 08:42:53;;;;;;;;;;;-0.50;99.90;;;;;;5024085;28;20351;-65
2023/12/02 08:45:21;;;;;;;;;;;-0.70;99.90;;;;;;5025474;28;19930;-66
2023/12/02 08:47:48;;;;;;;;;;;-0.50;99.90;;;;;;5031355;28;19932;-65
2023/12/02 08:50:16;;;;;;;;;;;-0.60;99.90;;;;;;5019005;28;19936;-64
2023/12/02 08:52:44;;;;;;;;;;;-0.60;99.90;;;;;;5018526;28;19932;-63
2023/12/02 08:55:12;;;;;;;;;;;-0.70;99.90;;;;;;5017033;28;19999;-65
2023/12/02 08:57:43;;;;;;;;;;;-0.80;99.90;;;;;;5015227;28;19929;-69
2023/12/02 09:00:12;;;;;;;;;;;-0.90;99.90;;;;;;5017855;28;20347;-65
2023/12/02 09:02:40;;;;;;;;;;;-1.00;99.90;;;;;;5018839;28;20407;-64
2023/12/02 09:05:08;;;;;;;;;;;-1.10;99.90;;;;;;5017440;28;19929;-64
2023/12/02 09:07:36;;;;;;;;;;;-1.10;99.90;;;;;;5019181;28;19921;-64
2023/12/02 09:10:04;;;;;;;;;;;-1.10;99.90;;;;;;5014696;28;20424;-64
2023/12/02 09:12:32;;;;;;;;;;;-1.10;99.90;;;;;;5018707;28;20400;-64
2023/12/02 09:15:09;;;;;;;;;;;-1.00;99.90;;;;;;5018391;28;20312;-64
2023/12/02 09:17:53;;;;;;;;;;;-1.00;99.90;;;;;;5017901;28;20014;-64
2023/12/02 09:20:30;;;;;;;;;;;-1.00;99.90;;;;;;5016300;28;20090;-64
2023/12/02 09:23:00;;;;;;;;;;;-1.00;99.90;;;;;;4980807;28;19984;-64
2023/12/02 09:25:28;;;;;;;;;;;-0.90;99.90;;;;;;4980279;28;20500;-64
2023/12/02 09:28:10;;;;;;;;;;;-0.90;99.90;;;;;;4980633;28;20317;-64
2023/12/02 09:30:41;;;;;;;;;;;-0.80;99.90;;;;;;4976986;28;19930;-64
2023/12/02 09:33:09;;;;;;;;;;;-0.90;99.90;;;;;;4978807;28;20021;-64
2023/12/02 09:35:36;;;;;;;;;;;-0.90;99.90;;;;;;4981598;28;19921;-64
2023/12/02 09:38:04;;;;;;;;;;;-0.90;99.90;;;;;;4981543;28;19921;-64
2023/12/02 09:40:35;;;;;;;;;;;-0.80;99.90;;;;;;4978372;28;20316;-64
2023/12/02 09:43:15;;;;;;;;;;;-0.80;99.90;;;;;;4981336;28;19921;-64
2023/12/02 09:45:48;;;;;;;;;;;-0.60;99.90;;;;;;4980213;28;19930;-64
2023/12/02 09:48:23;;;;;;;14.98;2.20;;;-0.60;99.90;;;;;;4979086;28;19972;-65
2023/12/02 09:51:02;;;;;;;2.50;2.03;;;-0.70;99.90;;;;;;4976573;28;20385;-64
2023/12/02 09:53:50;;;;;;;3.55;2.38;;;-0.60;99.90;;;;;;4978198;28;20271;-64
2023/12/02 09:56:21;;;;;;;2.20;2.00;;;-0.70;99.90;;;;;;4978952;28;20222;-64
2023/12/02 09:58:58;;;;;;;2.97;2.05;;;-0.80;99.90;;;;;;4977246;28;20221;-64
2023/12/02 10:01:36;;;;;;;2.10;1.90;;;-0.90;99.90;;;;;;4977026;28;20317;-64
2023/12/02 10:04:13;;;;;;;2.75;2.45;;;-0.80;99.90;;;;;;4978969;28;20710;-64
2023/12/02 10:06:50;;;;;;;6.53;2.83;;;-0.70;99.90;;;;;;4980379;28;20719;-66
2023/12/02 10:09:34;;;;;;;3.33;1.95;;;-0.80;99.90;;;;;;4979140;28;20254;-65
2023/12/02 10:12:17;;;;;;;2.38;2.17;;;-0.70;99.90;;;;;;4980959;28;20217;-67
2023/12/02 10:14:51;;;;;;;3.05;1.95;;;-0.70;99.90;;;;;;4979917;28;20554;-66
2023/12/02 10:17:23;;;;;;;2.13;1.80;;;-0.80;99.90;;;;;;4981562;28;20210;-65
2023/12/02 10:19:56;;;;;;;2.25;1.90;;;-0.80;99.90;;;;;;4990688;28;20221;-66
2023/12/02 10:22:27;;;;;;;2.30;2.15;;;-0.80;99.90;;;;;;5022563;28;20362;-65
2023/12/02 10:25:04;;;;;;;2.63;2.10;;;-0.80;99.90;;;;;;5029522;28;20232;-66
2023/12/02 10:27:36;;;;;;;2.15;1.70;;;-0.80;99.90;;;;;;5029504;28;20550;-66
2023/12/02 10:30:10;;;;;;;2.10;1.33;;;-0.70;99.90;;;;;;5030420;28;20035;-66
2023/12/02 10:32:54;;;;;;;2.28;1.80;;;-0.80;99.90;;;;;;5030310;28;20259;-66
2023/12/02 10:35:31;;;;;;;1.80;1.60;;;-0.70;99.90;;;;;;5022103;28;20208;-66
2023/12/02 10:38:08;;;;;;;2.33;1.85;;;-0.70;99.90;;;;;;5030710;28;20196;-65
2023/12/02 10:40:36;;;;;;;2.75;1.80;;;-0.60;99.90;;;;;;5030179;28;20216;-66
2023/12/02 10:43:12;;;;;;;2.50;2.10;;;-0.70;99.90;;;;;;5029677;28;20231;-69
2023/12/02 10:45:42;;;;;;;1.50;1.40;;;-0.80;99.90;;;;;;5022831;28;20203;-65
2023/12/02 10:48:14;;;;;;;2.35;1.75;;;-0.80;99.90;;;;;;5030346;28;20663;-66
2023/12/02 10:50:42;;;;;;;1.98;1.77;;;-0.70;99.90;;;;;;5030389;28;20303;-65
2023/12/02 10:53:12;;;;;;;1.50;1.40;;;-0.70;99.90;;;;;;5030427;28;20209;-66
2023/12/02 10:55:45;;;;;;;2.97;2.70;;;-0.60;99.90;;;;;;5022764;28;20208;-65
2023/12/02 10:58:14;;;;;;;1.80;1.70;;;-0.70;99.90;;;;;;5029982;28;20648;-66
2023/12/02 11:00:47;;;;;;;1.98;1.67;;;-0.60;99.90;;;;;;5030003;28;20244;-65
2023/12/02 11:03:26;;;;;;;2.17;1.90;;;-0.50;99.90;;;;;;5023627;28;20201;-68
2023/12/02 11:06:01;;;;;;;2.13;2.00;;;-0.60;99.90;;;;;;5030026;28;20200;-66
2023/12/02 11:08:46;;;;;;;1.55;1.40;;;-0.50;99.90;;;;;;5030170;28;20298;-65
2023/12/02 11:11:25;;;;;;;2.17;1.73;;;-0.50;99.90;;;;;;5029817;28;20220;-66
2023/12/02 11:13:58;;;;;;;1.40;1.30;;;-0.50;99.90;;;;;;5025089;28;20205;-65
2023/12/02 11:16:34;;;;;;;1.70;1.60;;;-0.50;99.90;;;;;;5033256;28;20204;-66
2023/12/02 11:19:23;;;;;;;1.65;1.33;;;-0.50;99.90;;;;;;5028716;28;20246;-66
2023/12/02 11:22:05;;;;;;;2.22;1.95;;;-0.50;99.90;;;;;;5022101;28;20791;-66
2023/12/02 11:24:49;;;;;;;1.88;1.73;;;-0.50;99.90;;;;;;5032647;28;20581;-65
2023/12/02 11:27:31;;;;;;;2.40;2.15;;;-0.50;99.90;;;;;;5033732;28;20675;-66
2023/12/02 11:30:10;;;;;;;2.42;2.22;;;-0.50;99.90;;;;;;5033558;28;20222;-66
2023/12/02 11:32:45;;;;;;;2.22;1.77;;;-0.50;99.90;;;;;;5032903;28;20597;-65
2023/12/02 11:35:18;;;;;;;2.83;2.20;;;-0.50;99.90;;;;;;5033494;28;20204;-65
2023/12/02 11:37:57;;;;;;;3.65;2.63;;;-0.40;99.90;;;;;;5026253;28;20212;-65
2023/12/02 11:40:40;;;;;;;2.28;1.92;;;-0.40;99.90;;;;;;5033090;28;20290;-68
2023/12/02 11:43:15;;;;;;;2.85;2.60;;;-0.50;99.90;;;;;;5033652;28;20204;-66
2023/12/02 11:45:53;;;;;;;3.08;2.42;;;-0.40;99.90;;;;;;5025585;28;20208;-65
2023/12/02 11:48:31;;;;;;;2.65;2.15;;;-0.50;99.90;;;;;;5032600;28;20254;-65
2023/12/02 11:51:25;;;;;;;7.82;4.93;;;-0.40;99.90;;;;;;5033292;28;20248;-66
2023/12/02 11:54:15;;;;;;;6.65;4.35;;;-0.40;99.90;;;;;;5026470;28;20204;-65
2023/12/02 11:56:51;;;;;;;5.85;3.78;;;-0.40;99.90;;;;;;5033260;28;20640;-65
2023/12/02 11:59:20;;;;;;;3.63;3.22;;;-0.50;99.90;;;;;;5033041;28;20216;-66
2023/12/02 12:01:55;;;;;;;4.35;3.30;;;-0.50;99.90;;;;;;5026912;28;20223;-65
2023/12/02 12:04:55;;;;;;;3.70;2.78;;;-0.50;99.90;;;;;;5032941;28;20210;-67
2023/12/02 12:07:38;;;;;;;2.88;2.58;;;-0.60;99.90;;;;;;5032946;28;20693;-66
2023/12/02 12:10:09;;;;;;;2.45;2.25;;;-0.50;99.90;;;;;;5032927;28;20215;-65
2023/12/02 12:12:40;;;;;;;5.35;3.80;;;-0.50;99.90;;;;;;5032445;28;20779;-65
2023/12/02 12:15:09;;;;;;;3.38;2.60;;;-0.50;99.90;;;;;;5032928;28;20205;-65
2023/12/02 12:17:38;;;;;;;;;;;-0.50;99.90;;;;;;5032885;28;20057;-66
2023/12/02 12:20:18;;;;;;;;;;;-0.40;99.90;;;;;;5033156;28;19927;-67
2023/12/02 12:22:48;;;;;;;;;;;-0.30;99.90;;;;;;5025485;28;20019;-67
2023/12/02 12:25:14;;;;;;;;;;;-0.20;99.90;;;;;;5032203;28;19987;-63
2023/12/02 12:27:42;;;;;;;;;;;-0.20;99.90;;;;;;5033042;28;19921;-67
2023/12/02 12:30:10;;;;;;;;;;;-0.20;99.90;;;;;;5033006;28;20410;-66
2023/12/02 12:32:39;;;;;;;;;;;-0.10;99.90;;;;;;5031957;28;19967;-66
2023/12/02 12:35:10;;;;;;;;;;;-0.20;99.90;;;;;;5033038;28;19971;-66
2023/12/02 12:37:40;;;;;;;;;;;-0.30;99.90;;;;;;5032789;28;20030;-67
2023/12/02 12:40:11;;;;;;;;;;;-0.20;99.90;;;;;;5032843;28;19932;-69
2023/12/02 12:42:45;;;;;;;;;;;-0.30;99.90;;;;;;5032514;28;20384;-69
2023/12/02 12:45:14;;;;;;;;;;;-0.20;99.90;;;;;;5032641;28;19931;-66
2023/12/02 12:47:43;;;;;;;;;;;-0.10;99.90;;;;;;5031839;28;20453;-66
2023/12/02 12:50:12;;;;;;;;;;;-0.10;99.90;;;;;;5032587;28;19925;-66
2023/12/02 12:52:42;;;;;;;;;;;-0.10;99.90;;;;;;5032477;28;19921;-66
2023/12/02 12:55:11;;;;;;;;;;;-0.20;99.90;;;;;;5032758;28;19923;-67
2023/12/02 12:57:44;;;;;;;;;;;-0.20;99.90;;;;;;5032570;28;19921;-69
2023/12/02 13:00:14;;;;;;;;;;;-0.30;99.90;;;;;;5032467;28;19921;-67
2023/12/02 13:02:56;;;;;;;;;;;-0.20;99.90;;;;;;5031212;28;19927;-66
2023/12/02 13:05:32;;;;;;;;;;;-0.30;99.90;;;;;;5032402;28;19967;-66
2023/12/02 13:08:03;;;;;;;;;;;-0.30;99.90;;;;;;5032334;28;20007;-65
2023/12/02 13:10:34;;;;;;;;;;;-0.30;99.90;;;;;;5032105;28;19953;-66
2023/12/02 13:13:03;;;;;;;;;;;-0.30;99.90;;;;;;5032280;28;20168;-66
2023/12/02 13:15:33;;;;;;;;;;;-0.20;99.90;;;;;;5031725;28;19931;-67
2023/12/02 13:18:02;;;;;;;;;;;-0.20;99.90;;;;;;5032229;28;20066;-66
2023/12/02 13:20:32;;;;;;;;;;;-0.30;99.90;;;;;;5031493;28;19921;-69
2023/12/02 13:23:03;;;;;;;;;;;-0.30;99.90;;;;;;5032215;28;20339;-65
2023/12/02 13:25:36;;;;;;;;;;;-0.30;99.90;;;;;;5031792;28;20035;-66
2023/12/02 13:28:06;;;;;;;;;;;-0.40;99.90;;;;;;5032152;28;19925;-66
2023/12/02 13:30:36;;;;;;;;;;;-0.40;99.90;;;;;;5031081;28;19932;-66
2023/12/02 13:33:08;;;;;;;;;;;-0.40;99.90;;;;;;5031734;28;20026;-69
2023/12/02 13:35:38;;;;;;;;;;;-0.40;99.90;;;;;;5029565;28;20307;-66
2023/12/02 13:38:11;;;;;;;;;;;-0.40;99.90;;;;;;5031538;28;19929;-66
2023/12/02 13:40:43;;;;;;;;;;;-0.50;99.90;;;;;;5031770;28;19928;-66
2023/12/02 13:43:11;;;;;;;;;;;-0.40;99.90;;;;;;5031770;28;19921;-66
2023/12/02 13:45:40;;;;;;;;;;;-0.40;99.90;;;;;;5031310;28;20053;-66
2023/12/02 13:48:13;;;;;;;;;;;-0.50;99.90;;;;;;5031257;28;20004;-68
2023/12/02 13:50:43;;;;;;;;;;;-0.50;99.90;;;;;;5023399;28;19922;-66
2023/12/02 13:53:16;;;;;;;;;;;-0.40;99.90;;;;;;5031652;28;19921;-66
2023/12/02 13:55:51;;;;;;;;;;;-0.40;99.90;;;;;;5031083;28;20010;-66
2023/12/02 13:58:20;;;;;;;;;;;-0.40;99.90;;;;;;5031655;28;20003;-66
2023/12/02 14:00:51;;;;;;;;;;;-0.40;99.90;;;;;;5030408;28;20417;-67
2023/12/02 14:03:24;;;;;;;;;;;-0.40;99.90;;;;;;5031514;28;20269;-66
2023/12/02 14:05:55;;;;;;;;;;;-0.40;99.90;;;;;;5023201;28;19921;-69
2023/12/02 14:08:23;;;;;;;;;;;-0.30;99.90;;;;;;5031351;28;19921;-69
2023/12/02 14:10:53;;;;;;;;;;;-0.20;99.90;;;;;;5031172;28;19921;-65
2023/12/02 14:13:23;;;;;;;;;;;-0.10;99.90;;;;;;5031219;28;20291;-66
2023/12/02 14:16:00;;;;;;;;;;;0.10;99.90;;;;;;5030398;28;19975;-65
2023/12/02 14:18:50;;;;;;;;;;;0.10;99.90;;;;;;5029343;28;19921;-66